sensor_id;sensor_type;location;lat;lon;timestamp;P1;durP1;ratioP1;P2;durP2;ratioP2
21034;SDS011;10676;50.848;3.272;2023-12-20T00:01:33;33.92;;;28.65;;
21034;SDS011;10676;50.848;3.272;2023-12-20T00:03:59;32.55;;;29.15;;
21034;SDS011;10676;50.848;3.272;2023-12-20T00:06:25;34.50;;;29.52;;
21034;SDS011;10676;50.848;3.272;2023-12-20T00:08:51;33.67;;;30.15;;
21034;SDS011;10676;50.848;3.272;2023-12-20T00:11:16;33.78;;;30.40;;
21034;SDS011;10676;50.848;3.272;2023-12-20T00:13:42;30.15;;;27.08;;
21034;SDS011;10676;50.848;3.272;2023-12-20T00:16:08;32.80;;;29.25;;
21034;SDS011;10676;50.848;3.272;2023-12-20T00:18:34;32.40;;;28.75;;
21034;SDS011;10676;50.848;3.272;2023-12-20T00:21:00;32.00;;;29.02;;
21034;SDS011;10676;50.848;3.272;2023-12-20T00:23:25;30.45;;;27.65;;
21034;SDS011;10676;50.848;3.272;2023-12-20T00:25:51;33.22;;;27.98;;
21034;SDS011;10676;50.848;3.272;2023-12-20T00:28:16;31.17;;;27.95;;
21034;SDS011;10676;50.848;3.272;2023-12-20T00:33:11;31.13;;;26.30;;
21034;SDS011;10676;50.848;3.272;2023-12-20T00:35:39;29.60;;;26.42;;
21034;SDS011;10676;50.848;3.272;2023-12-20T00:38:04;29.52;;;26.58;;
21034;SDS011;10676;50.848;3.272;2023-12-20T00:40:32;29.70;;;26.65;;
21034;SDS011;10676;50.848;3.272;2023-12-20T00:42:58;27.35;;;24.92;;
21034;SDS011;10676;50.848;3.272;2023-12-20T00:45:26;29.40;;;25.85;;
21034;SDS011;10676;50.848;3.272;2023-12-20T00:47:51;28.65;;;25.55;;
21034;SDS011;10676;50.848;3.272;2023-12-20T00:50:17;28.30;;;25.40;;
21034;SDS011;10676;50.848;3.272;2023-12-20T00:52:43;27.95;;;25.13;;
21034;SDS011;10676;50.848;3.272;2023-12-20T00:55:10;26.13;;;23.35;;
21034;SDS011;10676;50.848;3.272;2023-12-20T00:57:35;26.25;;;23.80;;
21034;SDS011;10676;50.848;3.272;2023-12-20T01:00:04;27.77;;;24.40;;
21034;SDS011;10676;50.848;3.272;2023-12-20T01:02:30;26.23;;;23.52;;
21034;SDS011;10676;50.848;3.272;2023-12-20T01:04:55;29.58;;;23.83;;
21034;SDS011;10676;50.848;3.272;2023-12-20T01:07:21;29.67;;;23.65;;
21034;SDS011;10676;50.848;3.272;2023-12-20T01:09:47;29.05;;;25.13;;
21034;SDS011;10676;50.848;3.272;2023-12-20T01:12:13;26.73;;;23.65;;
21034;SDS011;10676;50.848;3.272;2023-12-20T01:14:39;25.50;;;23.00;;
21034;SDS011;10676;50.848;3.272;2023-12-20T01:17:05;28.90;;;23.45;;
21034;SDS011;10676;50.848;3.272;2023-12-20T01:19:32;25.00;;;22.33;;
21034;SDS011;10676;50.848;3.272;2023-12-20T01:21:58;23.65;;;21.65;;
21034;SDS011;10676;50.848;3.272;2023-12-20T01:24:25;24.92;;;22.50;;
21034;SDS011;10676;50.848;3.272;2023-12-20T01:26:51;24.42;;;21.90;;
21034;SDS011;10676;50.848;3.272;2023-12-20T01:29:17;23.60;;;21.20;;
21034;SDS011;10676;50.848;3.272;2023-12-20T01:31:42;24.85;;;21.38;;
21034;SDS011;10676;50.848;3.272;2023-12-20T01:34:08;22.92;;;20.85;;
21034;SDS011;10676;50.848;3.272;2023-12-20T01:36:34;24.20;;;21.85;;
21034;SDS011;10676;50.848;3.272;2023-12-20T01:38:59;24.45;;;22.23;;
21034;SDS011;10676;50.848;3.272;2023-12-20T01:41:25;24.13;;;21.38;;
21034;SDS011;10676;50.848;3.272;2023-12-20T01:43:51;24.50;;;21.95;;
21034;SDS011;10676;50.848;3.272;2023-12-20T01:46:18;24.60;;;22.00;;
21034;SDS011;10676;50.848;3.272;2023-12-20T01:51:17;28.60;;;22.27;;
21034;SDS011;10676;50.848;3.272;2023-12-20T01:53:42;25.77;;;23.10;;
21034;SDS011;10676;50.848;3.272;2023-12-20T01:56:09;26.38;;;23.75;;
21034;SDS011;10676;50.848;3.272;2023-12-20T01:58:37;26.58;;;23.30;;
21034;SDS011;10676;50.848;3.272;2023-12-20T02:01:08;30.33;;;22.88;;
21034;SDS011;10676;50.848;3.272;2023-12-20T02:03:34;25.10;;;22.75;;
21034;SDS011;10676;50.848;3.272;2023-12-20T02:06:01;26.17;;;23.55;;
21034;SDS011;10676;50.848;3.272;2023-12-20T02:08:28;28.98;;;24.40;;
21034;SDS011;10676;50.848;3.272;2023-12-20T02:10:54;26.73;;;23.85;;
21034;SDS011;10676;50.848;3.272;2023-12-20T02:13:21;29.23;;;24.17;;
21034;SDS011;10676;50.848;3.272;2023-12-20T02:15:46;26.63;;;24.20;;
21034;SDS011;10676;50.848;3.272;2023-12-20T02:18:12;29.80;;;24.95;;
21034;SDS011;10676;50.848;3.272;2023-12-20T02:20:40;28.33;;;25.85;;
21034;SDS011;10676;50.848;3.272;2023-12-20T02:23:06;28.65;;;25.52;;
21034;SDS011;10676;50.848;3.272;2023-12-20T02:25:32;28.48;;;25.58;;
21034;SDS011;10676;50.848;3.272;2023-12-20T02:27:57;28.45;;;25.63;;
21034;SDS011;10676;50.848;3.272;2023-12-20T02:30:23;28.10;;;25.67;;
21034;SDS011;10676;50.848;3.272;2023-12-20T02:32:49;28.60;;;25.60;;
21034;SDS011;10676;50.848;3.272;2023-12-20T02:35:22;27.80;;;25.08;;
21034;SDS011;10676;50.848;3.272;2023-12-20T02:37:48;28.60;;;25.67;;
21034;SDS011;10676;50.848;3.272;2023-12-20T02:40:13;28.70;;;25.77;;
21034;SDS011;10676;50.848;3.272;2023-12-20T02:42:47;32.03;;;26.42;;
21034;SDS011;10676;50.848;3.272;2023-12-20T02:45:12;30.38;;;26.55;;
21034;SDS011;10676;50.848;3.272;2023-12-20T02:47:38;29.50;;;26.52;;
21034;SDS011;10676;50.848;3.272;2023-12-20T02:50:04;27.98;;;25.52;;
21034;SDS011;10676;50.848;3.272;2023-12-20T02:52:30;28.83;;;25.83;;
21034;SDS011;10676;50.848;3.272;2023-12-20T02:54:55;30.60;;;27.60;;
21034;SDS011;10676;50.848;3.272;2023-12-20T02:57:21;29.45;;;26.58;;
21034;SDS011;10676;50.848;3.272;2023-12-20T02:59:47;29.90;;;26.83;;
21034;SDS011;10676;50.848;3.272;2023-12-20T03:02:13;29.95;;;27.00;;
21034;SDS011;10676;50.848;3.272;2023-12-20T03:04:38;30.98;;;27.17;;
21034;SDS011;10676;50.848;3.272;2023-12-20T03:07:04;30.30;;;27.23;;
21034;SDS011;10676;50.848;3.272;2023-12-20T03:09:29;31.80;;;28.52;;
21034;SDS011;10676;50.848;3.272;2023-12-20T03:11:55;30.75;;;27.75;;
21034;SDS011;10676;50.848;3.272;2023-12-20T03:14:24;30.00;;;27.27;;
21034;SDS011;10676;50.848;3.272;2023-12-20T03:16:50;30.63;;;27.42;;
21034;SDS011;10676;50.848;3.272;2023-12-20T03:19:20;31.70;;;28.27;;
21034;SDS011;10676;50.848;3.272;2023-12-20T03:21:46;33.42;;;28.65;;
21034;SDS011;10676;50.848;3.272;2023-12-20T03:24:13;32.30;;;28.77;;
21034;SDS011;10676;50.848;3.272;2023-12-20T03:26:39;32.65;;;29.20;;
21034;SDS011;10676;50.848;3.272;2023-12-20T03:29:04;30.67;;;27.95;;
21034;SDS011;10676;50.848;3.272;2023-12-20T03:31:35;31.95;;;28.60;;
21034;SDS011;10676;50.848;3.272;2023-12-20T03:34:01;30.63;;;27.40;;
21034;SDS011;10676;50.848;3.272;2023-12-20T03:36:26;32.03;;;27.63;;
21034;SDS011;10676;50.848;3.272;2023-12-20T03:38:52;30.80;;;27.45;;
21034;SDS011;10676;50.848;3.272;2023-12-20T03:41:18;30.35;;;27.25;;
21034;SDS011;10676;50.848;3.272;2023-12-20T03:43:50;32.05;;;26.90;;
21034;SDS011;10676;50.848;3.272;2023-12-20T03:46:15;29.15;;;26.15;;
21034;SDS011;10676;50.848;3.272;2023-12-20T03:48:41;33.50;;;27.85;;
21034;SDS011;10676;50.848;3.272;2023-12-20T03:51:07;30.30;;;26.95;;
21034;SDS011;10676;50.848;3.272;2023-12-20T03:53:32;30.60;;;27.30;;
21034;SDS011;10676;50.848;3.272;2023-12-20T03:55:58;37.65;;;28.17;;
21034;SDS011;10676;50.848;3.272;2023-12-20T03:58:24;32.08;;;27.30;;
21034;SDS011;10676;50.848;3.272;2023-12-20T04:00:50;29.48;;;26.73;;
21034;SDS011;10676;50.848;3.272;2023-12-20T04:03:17;29.08;;;26.00;;
21034;SDS011;10676;50.848;3.272;2023-12-20T04:05:44;29.23;;;26.02;;
21034;SDS011;10676;50.848;3.272;2023-12-20T04:08:12;34.50;;;26.27;;
21034;SDS011;10676;50.848;3.272;2023-12-20T04:10:37;28.73;;;26.08;;
21034;SDS011;10676;50.848;3.272;2023-12-20T04:13:04;28.90;;;25.45;;
21034;SDS011;10676;50.848;3.272;2023-12-20T04:15:30;27.27;;;24.67;;
21034;SDS011;10676;50.848;3.272;2023-12-20T04:17:56;30.02;;;25.73;;
21034;SDS011;10676;50.848;3.272;2023-12-20T04:20:22;28.38;;;25.35;;
21034;SDS011;10676;50.848;3.272;2023-12-20T04:22:47;28.95;;;26.13;;
21034;SDS011;10676;50.848;3.272;2023-12-20T04:25:16;27.67;;;25.60;;
21034;SDS011;10676;50.848;3.272;2023-12-20T04:27:42;29.25;;;26.10;;
21034;SDS011;10676;50.848;3.272;2023-12-20T04:30:07;29.45;;;26.50;;
21034;SDS011;10676;50.848;3.272;2023-12-20T04:32:34;29.20;;;26.08;;
21034;SDS011;10676;50.848;3.272;2023-12-20T04:34:59;32.33;;;26.20;;
21034;SDS011;10676;50.848;3.272;2023-12-20T04:37:25;30.38;;;27.02;;
21034;SDS011;10676;50.848;3.272;2023-12-20T04:39:51;33.33;;;27.23;;
21034;SDS011;10676;50.848;3.272;2023-12-20T04:42:18;29.75;;;26.50;;
21034;SDS011;10676;50.848;3.272;2023-12-20T04:44:44;30.88;;;25.45;;
21034;SDS011;10676;50.848;3.272;2023-12-20T04:47:10;29.63;;;26.60;;
21034;SDS011;10676;50.848;3.272;2023-12-20T04:49:35;27.95;;;25.23;;
21034;SDS011;10676;50.848;3.272;2023-12-20T04:52:01;29.50;;;25.23;;
21034;SDS011;10676;50.848;3.272;2023-12-20T04:54:28;30.75;;;24.80;;
21034;SDS011;10676;50.848;3.272;2023-12-20T04:56:53;27.85;;;24.67;;
21034;SDS011;10676;50.848;3.272;2023-12-20T04:59:19;27.13;;;24.63;;
21034;SDS011;10676;50.848;3.272;2023-12-20T05:04:19;23.95;;;21.65;;
21034;SDS011;10676;50.848;3.272;2023-12-20T05:06:45;24.30;;;21.00;;
21034;SDS011;10676;50.848;3.272;2023-12-20T05:09:11;21.00;;;18.95;;
21034;SDS011;10676;50.848;3.272;2023-12-20T05:11:36;23.55;;;20.45;;
21034;SDS011;10676;50.848;3.272;2023-12-20T05:14:02;22.08;;;19.80;;
21034;SDS011;10676;50.848;3.272;2023-12-20T05:16:28;27.13;;;19.42;;
21034;SDS011;10676;50.848;3.272;2023-12-20T05:18:53;21.77;;;19.35;;
21034;SDS011;10676;50.848;3.272;2023-12-20T05:21:19;23.17;;;18.98;;
21034;SDS011;10676;50.848;3.272;2023-12-20T05:23:48;22.83;;;19.05;;
21034;SDS011;10676;50.848;3.272;2023-12-20T05:26:14;22.08;;;19.67;;
21034;SDS011;10676;50.848;3.272;2023-12-20T05:28:39;24.55;;;19.15;;
21034;SDS011;10676;50.848;3.272;2023-12-20T05:31:05;17.95;;;16.35;;
21034;SDS011;10676;50.848;3.272;2023-12-20T05:33:31;19.45;;;17.52;;
21034;SDS011;10676;50.848;3.272;2023-12-20T05:35:57;19.40;;;17.58;;
21034;SDS011;10676;50.848;3.272;2023-12-20T05:38:23;23.80;;;17.63;;
21034;SDS011;10676;50.848;3.272;2023-12-20T05:40:48;20.20;;;18.15;;
21034;SDS011;10676;50.848;3.272;2023-12-20T05:43:14;18.85;;;17.02;;
21034;SDS011;10676;50.848;3.272;2023-12-20T05:45:40;19.95;;;17.17;;
21034;SDS011;10676;50.848;3.272;2023-12-20T05:48:05;28.90;;;17.45;;
21034;SDS011;10676;50.848;3.272;2023-12-20T05:50:31;18.90;;;16.98;;
21034;SDS011;10676;50.848;3.272;2023-12-20T05:52:58;18.52;;;16.75;;
21034;SDS011;10676;50.848;3.272;2023-12-20T05:55:24;19.35;;;17.38;;
21034;SDS011;10676;50.848;3.272;2023-12-20T05:57:58;21.05;;;17.67;;
21034;SDS011;10676;50.848;3.272;2023-12-20T06:00:23;25.95;;;17.98;;
21034;SDS011;10676;50.848;3.272;2023-12-20T06:02:50;19.45;;;17.48;;
21034;SDS011;10676;50.848;3.272;2023-12-20T06:05:16;19.45;;;17.45;;
21034;SDS011;10676;50.848;3.272;2023-12-20T06:07:42;23.25;;;17.77;;
21034;SDS011;10676;50.848;3.272;2023-12-20T06:10:07;19.95;;;17.90;;
21034;SDS011;10676;50.848;3.272;2023-12-20T06:12:33;30.67;;;18.70;;
21034;SDS011;10676;50.848;3.272;2023-12-20T06:15:01;21.08;;;18.90;;
21034;SDS011;10676;50.848;3.272;2023-12-20T06:17:27;21.30;;;18.45;;
21034;SDS011;10676;50.848;3.272;2023-12-20T06:19:56;21.38;;;18.15;;
21034;SDS011;10676;50.848;3.272;2023-12-20T06:22:21;20.75;;;18.38;;
21034;SDS011;10676;50.848;3.272;2023-12-20T06:24:47;27.25;;;19.30;;
21034;SDS011;10676;50.848;3.272;2023-12-20T06:27:13;20.92;;;18.85;;
21034;SDS011;10676;50.848;3.272;2023-12-20T06:29:38;24.58;;;20.10;;
21034;SDS011;10676;50.848;3.272;2023-12-20T06:32:07;22.27;;;19.95;;
21034;SDS011;10676;50.848;3.272;2023-12-20T06:34:32;22.52;;;19.92;;
21034;SDS011;10676;50.848;3.272;2023-12-20T06:36:58;28.58;;;20.55;;
21034;SDS011;10676;50.848;3.272;2023-12-20T06:39:24;28.00;;;20.42;;
21034;SDS011;10676;50.848;3.272;2023-12-20T06:41:49;22.02;;;19.52;;
21034;SDS011;10676;50.848;3.272;2023-12-20T06:44:15;22.10;;;19.83;;
21034;SDS011;10676;50.848;3.272;2023-12-20T06:46:40;25.77;;;20.58;;
21034;SDS011;10676;50.848;3.272;2023-12-20T06:49:06;27.15;;;19.27;;
21034;SDS011;10676;50.848;3.272;2023-12-20T06:51:32;22.35;;;20.10;;
21034;SDS011;10676;50.848;3.272;2023-12-20T06:53:57;24.50;;;19.45;;
21034;SDS011;10676;50.848;3.272;2023-12-20T06:56:23;21.63;;;19.58;;
21034;SDS011;10676;50.848;3.272;2023-12-20T06:58:49;23.25;;;20.50;;
21034;SDS011;10676;50.848;3.272;2023-12-20T07:01:15;23.25;;;20.77;;
21034;SDS011;10676;50.848;3.272;2023-12-20T07:03:41;25.08;;;20.50;;
21034;SDS011;10676;50.848;3.272;2023-12-20T07:06:12;25.95;;;20.75;;
21034;SDS011;10676;50.848;3.272;2023-12-20T07:08:41;22.58;;;20.27;;
21034;SDS011;10676;50.848;3.272;2023-12-20T07:11:07;27.42;;;20.38;;
21034;SDS011;10676;50.848;3.272;2023-12-20T07:16:02;23.80;;;21.38;;
21034;SDS011;10676;50.848;3.272;2023-12-20T07:18:30;23.63;;;21.35;;
21034;SDS011;10676;50.848;3.272;2023-12-20T07:20:56;25.92;;;23.05;;
21034;SDS011;10676;50.848;3.272;2023-12-20T07:23:21;32.67;;;22.83;;
21034;SDS011;10676;50.848;3.272;2023-12-20T07:25:47;26.08;;;23.23;;
21034;SDS011;10676;50.848;3.272;2023-12-20T07:28:13;26.35;;;23.67;;
21034;SDS011;10676;50.848;3.272;2023-12-20T07:30:39;29.00;;;23.58;;
21034;SDS011;10676;50.848;3.272;2023-12-20T07:33:04;28.40;;;24.98;;
21034;SDS011;10676;50.848;3.272;2023-12-20T07:35:33;27.05;;;24.08;;
21034;SDS011;10676;50.848;3.272;2023-12-20T07:37:59;34.42;;;26.73;;
21034;SDS011;10676;50.848;3.272;2023-12-20T07:40:24;28.85;;;25.73;;
21034;SDS011;10676;50.848;3.272;2023-12-20T07:42:53;31.08;;;25.58;;
21034;SDS011;10676;50.848;3.272;2023-12-20T07:45:19;31.70;;;26.17;;
21034;SDS011;10676;50.848;3.272;2023-12-20T07:47:44;31.15;;;25.23;;
21034;SDS011;10676;50.848;3.272;2023-12-20T07:50:10;33.30;;;26.25;;
21034;SDS011;10676;50.848;3.272;2023-12-20T07:52:36;34.85;;;26.23;;
21034;SDS011;10676;50.848;3.272;2023-12-20T07:55:02;34.35;;;26.10;;
21034;SDS011;10676;50.848;3.272;2023-12-20T07:57:29;35.75;;;26.20;;
21034;SDS011;10676;50.848;3.272;2023-12-20T07:59:55;32.85;;;27.48;;
21034;SDS011;10676;50.848;3.272;2023-12-20T08:02:21;36.30;;;26.50;;
21034;SDS011;10676;50.848;3.272;2023-12-20T08:04:47;36.50;;;26.95;;
21034;SDS011;10676;50.848;3.272;2023-12-20T08:07:12;30.25;;;27.05;;
21034;SDS011;10676;50.848;3.272;2023-12-20T08:09:38;46.20;;;27.52;;
21034;SDS011;10676;50.848;3.272;2023-12-20T08:12:04;32.65;;;27.17;;
21034;SDS011;10676;50.848;3.272;2023-12-20T08:14:30;43.42;;;28.77;;
21034;SDS011;10676;50.848;3.272;2023-12-20T08:19:25;38.38;;;28.60;;
21034;SDS011;10676;50.848;3.272;2023-12-20T08:21:51;34.08;;;28.25;;
21034;SDS011;10676;50.848;3.272;2023-12-20T08:24:16;45.53;;;27.73;;
21034;SDS011;10676;50.848;3.272;2023-12-20T08:26:45;42.83;;;29.17;;
21034;SDS011;10676;50.848;3.272;2023-12-20T08:29:13;38.03;;;28.10;;
21034;SDS011;10676;50.848;3.272;2023-12-20T08:31:40;42.03;;;28.52;;
21034;SDS011;10676;50.848;3.272;2023-12-20T08:34:05;33.95;;;27.65;;
21034;SDS011;10676;50.848;3.272;2023-12-20T08:36:31;37.50;;;26.52;;
21034;SDS011;10676;50.848;3.272;2023-12-20T08:38:58;30.52;;;24.73;;
21034;SDS011;10676;50.848;3.272;2023-12-20T08:41:25;33.20;;;23.45;;
21034;SDS011;10676;50.848;3.272;2023-12-20T08:43:51;26.77;;;21.67;;
21034;SDS011;10676;50.848;3.272;2023-12-20T08:46:17;27.00;;;22.60;;
21034;SDS011;10676;50.848;3.272;2023-12-20T08:48:42;33.45;;;21.90;;
21034;SDS011;10676;50.848;3.272;2023-12-20T08:51:08;25.17;;;22.48;;
21034;SDS011;10676;50.848;3.272;2023-12-20T08:53:35;22.30;;;20.00;;
21034;SDS011;10676;50.848;3.272;2023-12-20T08:56:00;25.42;;;20.02;;
21034;SDS011;10676;50.848;3.272;2023-12-20T08:58:27;26.02;;;19.85;;
21034;SDS011;10676;50.848;3.272;2023-12-20T09:00:53;22.27;;;17.67;;
21034;SDS011;10676;50.848;3.272;2023-12-20T09:03:18;27.50;;;18.63;;
21034;SDS011;10676;50.848;3.272;2023-12-20T09:05:44;24.95;;;18.13;;
21034;SDS011;10676;50.848;3.272;2023-12-20T09:08:10;25.55;;;17.15;;
21034;SDS011;10676;50.848;3.272;2023-12-20T09:10:35;22.42;;;16.45;;
21034;SDS011;10676;50.848;3.272;2023-12-20T09:13:02;28.55;;;16.60;;
21034;SDS011;10676;50.848;3.272;2023-12-20T09:15:29;24.10;;;16.13;;
21034;SDS011;10676;50.848;3.272;2023-12-20T09:17:55;22.77;;;16.80;;
21034;SDS011;10676;50.848;3.272;2023-12-20T09:20:21;17.25;;;15.43;;
21034;SDS011;10676;50.848;3.272;2023-12-20T09:22:49;20.52;;;15.43;;
21034;SDS011;10676;50.848;3.272;2023-12-20T09:25:15;17.98;;;15.65;;
21034;SDS011;10676;50.848;3.272;2023-12-20T09:27:42;24.17;;;15.07;;
21034;SDS011;10676;50.848;3.272;2023-12-20T09:30:08;21.73;;;14.95;;
21034;SDS011;10676;50.848;3.272;2023-12-20T09:32:34;18.23;;;14.23;;
21034;SDS011;10676;50.848;3.272;2023-12-20T09:35:00;18.15;;;14.90;;
21034;SDS011;10676;50.848;3.272;2023-12-20T09:37:28;20.88;;;14.23;;
21034;SDS011;10676;50.848;3.272;2023-12-20T09:39:54;19.85;;;14.15;;
21034;SDS011;10676;50.848;3.272;2023-12-20T09:43:03;24.38;;;14.30;;
21034;SDS011;10676;50.848;3.272;2023-12-20T09:45:16;15.80;;;14.10;;
21034;SDS011;10676;50.848;3.272;2023-12-20T09:47:46;19.90;;;14.13;;
21034;SDS011;10676;50.848;3.272;2023-12-20T09:50:14;20.58;;;14.25;;
21034;SDS011;10676;50.848;3.272;2023-12-20T09:52:40;19.00;;;14.23;;
21034;SDS011;10676;50.848;3.272;2023-12-20T09:55:08;20.15;;;13.85;;
21034;SDS011;10676;50.848;3.272;2023-12-20T09:57:34;20.13;;;13.85;;
21034;SDS011;10676;50.848;3.272;2023-12-20T10:00:00;19.17;;;13.80;;
21034;SDS011;10676;50.848;3.272;2023-12-20T10:02:26;16.13;;;12.60;;
21034;SDS011;10676;50.848;3.272;2023-12-20T10:04:52;21.55;;;12.68;;
21034;SDS011;10676;50.848;3.272;2023-12-20T10:07:19;18.25;;;13.02;;
21034;SDS011;10676;50.848;3.272;2023-12-20T10:09:46;20.13;;;13.45;;
21034;SDS011;10676;50.848;3.272;2023-12-20T10:12:12;15.55;;;12.88;;
21034;SDS011;10676;50.848;3.272;2023-12-20T10:14:38;20.52;;;12.80;;
21034;SDS011;10676;50.848;3.272;2023-12-20T10:17:05;14.23;;;12.55;;
21034;SDS011;10676;50.848;3.272;2023-12-20T10:19:32;13.90;;;12.20;;
21034;SDS011;10676;50.848;3.272;2023-12-20T10:22:03;17.13;;;11.75;;
21034;SDS011;10676;50.848;3.272;2023-12-20T10:24:30;15.45;;;11.23;;
21034;SDS011;10676;50.848;3.272;2023-12-20T10:27:05;17.38;;;11.15;;
21034;SDS011;10676;50.848;3.272;2023-12-20T10:29:36;13.55;;;10.43;;
21034;SDS011;10676;50.848;3.272;2023-12-20T10:32:22;11.85;;;10.10;;
21034;SDS011;10676;50.848;3.272;2023-12-20T10:34:51;11.55;;;9.90;;
21034;SDS011;10676;50.848;3.272;2023-12-20T10:37:18;16.77;;;10.23;;
21034;SDS011;10676;50.848;3.272;2023-12-20T10:39:44;14.45;;;10.18;;
21034;SDS011;10676;50.848;3.272;2023-12-20T10:42:14;13.23;;;10.63;;
21034;SDS011;10676;50.848;3.272;2023-12-20T10:44:41;18.02;;;10.88;;
21034;SDS011;10676;50.848;3.272;2023-12-20T10:47:08;12.77;;;10.50;;
21034;SDS011;10676;50.848;3.272;2023-12-20T10:49:36;16.58;;;11.00;;
21034;SDS011;10676;50.848;3.272;2023-12-20T10:52:05;18.75;;;11.18;;
21034;SDS011;10676;50.848;3.272;2023-12-20T10:54:31;15.52;;;11.18;;
21034;SDS011;10676;50.848;3.272;2023-12-20T10:56:58;16.17;;;10.70;;
21034;SDS011;10676;50.848;3.272;2023-12-20T10:59:24;13.77;;;10.90;;
21034;SDS011;10676;50.848;3.272;2023-12-20T11:01:54;14.88;;;10.52;;
21034;SDS011;10676;50.848;3.272;2023-12-20T11:04:25;11.98;;;10.68;;
21034;SDS011;10676;50.848;3.272;2023-12-20T11:07:06;13.27;;;11.02;;
21034;SDS011;10676;50.848;3.272;2023-12-20T11:09:46;13.13;;;10.52;;
21034;SDS011;10676;50.848;3.272;2023-12-20T11:12:43;17.73;;;11.10;;
21034;SDS011;10676;50.848;3.272;2023-12-20T11:15:15;13.60;;;10.40;;
21034;SDS011;10676;50.848;3.272;2023-12-20T11:17:44;15.27;;;10.63;;
21034;SDS011;10676;50.848;3.272;2023-12-20T11:20:11;15.57;;;11.30;;
21034;SDS011;10676;50.848;3.272;2023-12-20T11:22:38;11.68;;;10.52;;
21034;SDS011;10676;50.848;3.272;2023-12-20T11:25:16;13.98;;;11.00;;
21034;SDS011;10676;50.848;3.272;2023-12-20T11:27:42;17.63;;;11.32;;
21034;SDS011;10676;50.848;3.272;2023-12-20T11:30:08;15.02;;;11.43;;
21034;SDS011;10676;50.848;3.272;2023-12-20T11:32:35;13.85;;;11.05;;
21034;SDS011;10676;50.848;3.272;2023-12-20T11:37:37;17.25;;;11.05;;
21034;SDS011;10676;50.848;3.272;2023-12-20T11:40:05;15.40;;;11.85;;
21034;SDS011;10676;50.848;3.272;2023-12-20T11:42:41;15.73;;;11.07;;
21034;SDS011;10676;50.848;3.272;2023-12-20T11:45:11;15.95;;;11.93;;
21034;SDS011;10676;50.848;3.272;2023-12-20T11:47:50;12.48;;;10.90;;
21034;SDS011;10676;50.848;3.272;2023-12-20T11:50:18;13.93;;;11.25;;
21034;SDS011;10676;50.848;3.272;2023-12-20T11:52:45;19.38;;;11.68;;
21034;SDS011;10676;50.848;3.272;2023-12-20T11:55:11;18.67;;;11.65;;
21034;SDS011;10676;50.848;3.272;2023-12-20T11:57:38;16.40;;;11.43;;
21034;SDS011;10676;50.848;3.272;2023-12-20T12:00:04;17.77;;;11.32;;
21034;SDS011;10676;50.848;3.272;2023-12-20T12:02:31;17.67;;;11.45;;
21034;SDS011;10676;50.848;3.272;2023-12-20T12:04:57;12.13;;;10.80;;
21034;SDS011;10676;50.848;3.272;2023-12-20T12:07:24;12.75;;;10.90;;
21034;SDS011;10676;50.848;3.272;2023-12-20T12:09:50;17.42;;;9.88;;
21034;SDS011;10676;50.848;3.272;2023-12-20T12:12:16;13.98;;;9.20;;
21034;SDS011;10676;50.848;3.272;2023-12-20T12:14:44;15.85;;;10.65;;
21034;SDS011;10676;50.848;3.272;2023-12-20T12:17:14;12.50;;;11.25;;
21034;SDS011;10676;50.848;3.272;2023-12-20T12:19:41;15.27;;;10.90;;
21034;SDS011;10676;50.848;3.272;2023-12-20T12:22:08;14.55;;;10.80;;
21034;SDS011;10676;50.848;3.272;2023-12-20T12:24:42;12.25;;;10.90;;
21034;SDS011;10676;50.848;3.272;2023-12-20T12:27:09;13.13;;;10.20;;
21034;SDS011;10676;50.848;3.272;2023-12-20T12:29:35;14.68;;;10.07;;
21034;SDS011;10676;50.848;3.272;2023-12-20T12:32:05;11.63;;;10.18;;
21034;SDS011;10676;50.848;3.272;2023-12-20T12:34:32;13.18;;;9.68;;
21034;SDS011;10676;50.848;3.272;2023-12-20T12:36:59;14.15;;;10.13;;
21034;SDS011;10676;50.848;3.272;2023-12-20T12:39:25;13.65;;;10.13;;
21034;SDS011;10676;50.848;3.272;2023-12-20T12:41:51;16.17;;;10.20;;
21034;SDS011;10676;50.848;3.272;2023-12-20T12:44:17;16.52;;;9.98;;
21034;SDS011;10676;50.848;3.272;2023-12-20T12:46:43;11.10;;;10.07;;
21034;SDS011;10676;50.848;3.272;2023-12-20T12:49:10;11.15;;;9.40;;
21034;SDS011;10676;50.848;3.272;2023-12-20T12:51:37;11.88;;;9.75;;
21034;SDS011;10676;50.848;3.272;2023-12-20T12:54:03;13.13;;;10.20;;
21034;SDS011;10676;50.848;3.272;2023-12-20T12:56:29;13.65;;;9.70;;
21034;SDS011;10676;50.848;3.272;2023-12-20T12:58:55;13.02;;;8.98;;
21034;SDS011;10676;50.848;3.272;2023-12-20T13:01:21;14.55;;;9.10;;
21034;SDS011;10676;50.848;3.272;2023-12-20T13:03:47;10.27;;;8.90;;
21034;SDS011;10676;50.848;3.272;2023-12-20T13:06:14;16.02;;;10.57;;
21034;SDS011;10676;50.848;3.272;2023-12-20T13:08:39;19.40;;;10.15;;
21034;SDS011;10676;50.848;3.272;2023-12-20T13:11:05;13.95;;;10.50;;
21034;SDS011;10676;50.848;3.272;2023-12-20T13:13:31;11.85;;;10.68;;
21034;SDS011;10676;50.848;3.272;2023-12-20T13:15:56;13.32;;;12.00;;
21034;SDS011;10676;50.848;3.272;2023-12-20T13:18:23;14.80;;;11.13;;
21034;SDS011;10676;50.848;3.272;2023-12-20T13:20:49;12.80;;;11.38;;
21034;SDS011;10676;50.848;3.272;2023-12-20T13:23:15;14.85;;;10.82;;
21034;SDS011;10676;50.848;3.272;2023-12-20T13:25:43;10.95;;;10.05;;
21034;SDS011;10676;50.848;3.272;2023-12-20T13:28:10;12.57;;;11.18;;
21034;SDS011;10676;50.848;3.272;2023-12-20T13:30:37;11.65;;;10.52;;
21034;SDS011;10676;50.848;3.272;2023-12-20T13:33:02;12.15;;;10.98;;
21034;SDS011;10676;50.848;3.272;2023-12-20T13:35:29;14.73;;;11.27;;
21034;SDS011;10676;50.848;3.272;2023-12-20T13:37:55;11.23;;;10.40;;
21034;SDS011;10676;50.848;3.272;2023-12-20T13:40:21;12.20;;;11.02;;
21034;SDS011;10676;50.848;3.272;2023-12-20T13:42:47;13.65;;;12.18;;
21034;SDS011;10676;50.848;3.272;2023-12-20T13:45:13;13.25;;;11.80;;
21034;SDS011;10676;50.848;3.272;2023-12-20T13:47:39;15.52;;;12.23;;
21034;SDS011;10676;50.848;3.272;2023-12-20T13:50:05;12.68;;;11.38;;
21034;SDS011;10676;50.848;3.272;2023-12-20T13:52:33;16.60;;;13.18;;
21034;SDS011;10676;50.848;3.272;2023-12-20T13:54:58;13.85;;;12.27;;
21034;SDS011;10676;50.848;3.272;2023-12-20T13:57:24;15.45;;;12.98;;
21034;SDS011;10676;50.848;3.272;2023-12-20T13:59:50;13.75;;;12.32;;
21034;SDS011;10676;50.848;3.272;2023-12-20T14:02:15;13.40;;;12.18;;
21034;SDS011;10676;50.848;3.272;2023-12-20T14:04:44;16.05;;;12.50;;
21034;SDS011;10676;50.848;3.272;2023-12-20T14:07:09;13.68;;;12.30;;
21034;SDS011;10676;50.848;3.272;2023-12-20T14:09:35;14.10;;;12.80;;
21034;SDS011;10676;50.848;3.272;2023-12-20T14:12:01;14.77;;;12.70;;
21034;SDS011;10676;50.848;3.272;2023-12-20T14:14:27;18.75;;;13.30;;
21034;SDS011;10676;50.848;3.272;2023-12-20T14:16:53;14.60;;;13.05;;
21034;SDS011;10676;50.848;3.272;2023-12-20T14:19:29;13.98;;;12.68;;
21034;SDS011;10676;50.848;3.272;2023-12-20T14:21:55;14.52;;;12.60;;
21034;SDS011;10676;50.848;3.272;2023-12-20T14:24:21;16.60;;;12.75;;
21034;SDS011;10676;50.848;3.272;2023-12-20T14:26:48;16.05;;;12.70;;
21034;SDS011;10676;50.848;3.272;2023-12-20T14:29:13;14.48;;;12.80;;
21034;SDS011;10676;50.848;3.272;2023-12-20T14:31:39;13.90;;;12.55;;
21034;SDS011;10676;50.848;3.272;2023-12-20T14:34:05;19.08;;;13.20;;